KVPS Airport Information

Runway Information
Runway 01 Length 10012 ft width 300 ft
Elevation 50 ft Threshold 0 ft Heading 12
Runway 19 Length 10012 ft Width 300 ft
Elevation 62 ft Threshold 0 ft Heading 192
Runway 12 Length 12005 ft width 300 ft
Elevation 87 ft Threshold 0 ft Heading 120
Runway 30 Length 12005 ft Width 300 ft
Elevation 52 ft Threshold 0 ft Heading 300
Airport Frequencies
Type A/D Name APP/DEP Frequency 125.1 MHZ
Type ATIS Name ATIS Frequency 134.625 MHZ
Type CLD Name CLNC DEL Frequency 127.7 MHZ
Type GND Name GND Frequency 121.8 MHZ
Type PMSV Name PMSV METRO Frequency 34.25 MHZ
Type POST Name COMD POST Frequency 31.805 MHZ
Type PTD Name PTD Frequency 139.3 MHZ
Type TWR Name TWR Frequency 118.2 MHZ
Airport Navaids
Type TACAN Name Warrington Frequency 134500 KHZ
Airport Weather Information & NOTAM
ADDS - METARS form results

(1619 UTC 27 November 2020)
Data provider http://aviationweather.gov/metar/data/
 
METAR text: KVPS 271611Z AUTO 10004KT 10SM BKN008 23/23 A3009 RMK AO2 CIG 006V008 CIG 006 RWY01 CIG 006 RWY19 CIG 006 RWY30 SLP196 $
Conditions at: KVPS (EGLIN AFB/VALPAR, FL, US) observed 1611 UTC 27 November 2020
Temperature: 23.0°C (73°F)
Dewpoint: 23.0°C (73°F) [RH = 100%]
Pressure (altimeter): 30.09 inches Hg (1019.0 mb)
[Sea-level pressure: 1019.6 mb]
Winds: from the E (100 degrees) at 5 MPH (4 knots; 2.1 m/s)
Visibility: 10 or more miles (16+ km)
Ceiling: 800 feet AGL
Clouds: broken clouds at 800 feet AGL
Weather:
SOME DATA ABOVE MAY BE INACCURATE!!!
"$" is an indication the sensor requires maintenance

METAR text: KVPS 271601Z AUTO 10003KT 10SM BKN006 23/23 A3010 RMK AO2 CIG 005 RWY19 SLP199 $
Conditions at: KVPS (EGLIN AFB/VALPAR, FL, US) observed 1601 UTC 27 November 2020
Temperature: 23.0°C (73°F)
Dewpoint: 23.0°C (73°F) [RH = 100%]
Pressure (altimeter): 30.10 inches Hg (1019.4 mb)
[Sea-level pressure: 1019.9 mb]
Winds: from the E (100 degrees) at 3 MPH (3 knots; 1.5 m/s)
Visibility: 10 or more miles (16+ km)
Ceiling: 600 feet AGL
Clouds: broken clouds at 600 feet AGL
Weather:
SOME DATA ABOVE MAY BE INACCURATE!!!
"$" is an indication the sensor requires maintenance

METAR text: KVPS 271556Z AUTO 12004KT 10SM OVC005 22/22 A3010 RMK AO2 CIG 003V005 SLP199 T02240224 $
Conditions at: KVPS (EGLIN AFB/VALPAR, FL, US) observed 1556 UTC 27 November 2020
Temperature: 22.4°C (72°F)
Dewpoint: 22.4°C (72°F) [RH = 100%]
Pressure (altimeter): 30.10 inches Hg (1019.4 mb)
[Sea-level pressure: 1019.9 mb]
Winds: from the ESE (120 degrees) at 5 MPH (4 knots; 2.1 m/s)
Visibility: 10 or more miles (16+ km)
Ceiling: 500 feet AGL
Clouds: overcast cloud deck at 500 feet AGL
Weather:
SOME DATA ABOVE MAY BE INACCURATE!!!
"$" is an indication the sensor requires maintenance

METAR text: KVPS 271551Z AUTO 11004KT 10SM OVC005 22/22 A3010 RMK AO2 CIG 003V005 SLP199 $
Conditions at: KVPS (EGLIN AFB/VALPAR, FL, US) observed 1551 UTC 27 November 2020
Temperature: 22.0°C (72°F)
Dewpoint: 22.0°C (72°F) [RH = 100%]
Pressure (altimeter): 30.10 inches Hg (1019.4 mb)
[Sea-level pressure: 1019.9 mb]
Winds: from the ESE (110 degrees) at 5 MPH (4 knots; 2.1 m/s)
Visibility: 10 or more miles (16+ km)
Ceiling: 500 feet AGL
Clouds: overcast cloud deck at 500 feet AGL
Weather:
SOME DATA ABOVE MAY BE INACCURATE!!!
"$" is an indication the sensor requires maintenance

METAR text: KVPS 271536Z AUTO 00000KT 10SM OVC003 22/22 A3011 RMK AO2 CIG 002 RWY19 SLP203 $
Conditions at: KVPS (EGLIN AFB/VALPAR, FL, US) observed 1536 UTC 27 November 2020
Temperature: 22.0°C (72°F)
Dewpoint: 22.0°C (72°F) [RH = 100%]
Pressure (altimeter): 30.11 inches Hg (1019.7 mb)
[Sea-level pressure: 1020.3 mb]
Winds: calm
Visibility: 10 or more miles (16+ km)
Ceiling: 300 feet AGL
Clouds: overcast cloud deck at 300 feet AGL
Weather:
SOME DATA ABOVE MAY BE INACCURATE!!!
"$" is an indication the sensor requires maintenance

Forecast for: AMD
Text: TAF AMD KVPS 271525Z 2715/2816 VRB03KT 9999 BKN002 OVC006 QNH3007INS
Forecast period: 1500 to 1600 UTC 27 November 2020
Forecast type: FROM: standard forecast or significant change
Winds: variable direction winds at 3 MPH (3 knots; 1.5 m/s)
Visibility: 6 or more miles (10+ km)
Ceiling: 200 feet AGL
Clouds: broken clouds at 200 feet AGL
overcast cloud deck at 600 feet AGL
Weather: no significant weather forecast for this period
Text: BECMG 2716/2717 09003KT 9999 SCT006 BKN011 BKN015 BKN025 QNH3003INS
Forecast period: 1600 to 1700 UTC 27 November 2020
Forecast type: BECOMING: Conditions expected to become as follows by 1700 UTC 27 November 2020
Winds: from the E (90 degrees) at 3 MPH (3 knots; 1.5 m/s)
Visibility: 6 or more miles (10+ km)
Ceiling: 1100 feet AGL
Clouds: scattered clouds at 600 feet AGL
broken clouds at 1100 feet AGL
broken clouds at 1500 feet AGL
Weather: no significant weather forecast for this period
Text: BECMG 2717/2718 14006KT 9999 SCT015 BKN025 QNH3000INS
Forecast period: 1700 to 1800 UTC 27 November 2020
Forecast type: BECOMING: Conditions expected to become as follows by 1800 UTC 27 November 2020
Winds: from the SE (140 degrees) at 7 MPH (6 knots; 3.1 m/s)
Visibility: 6 or more miles (10+ km)
Ceiling: 2500 feet AGL
Clouds: scattered clouds at 1500 feet AGL
broken clouds at 2500 feet AGL
Weather: no significant weather forecast for this period
Text: BECMG 2718/2719 16006KT 9999 SCT055 QNH2998INS
Forecast period: 1800 UTC 27 November 2020 to 0000 UTC 28 November 2020
Forecast type: BECOMING: Conditions expected to become as follows by 1900 UTC 27 November 2020
Winds: from the SSE (160 degrees) at 7 MPH (6 knots; 3.1 m/s)
Visibility: 6 or more miles (10+ km)
Ceiling: at least 12,000 feet AGL
Clouds: scattered clouds at 5500 feet AGL
Weather: no significant weather forecast for this period
Text: BECMG 2800/2801 15006KT 8000 -SHRA VCTS SCT018CB QNH3002INS
Forecast period: 0000 to 0500 UTC 28 November 2020
Forecast type: BECOMING: Conditions expected to become as follows by 0100 UTC 28 November 2020
Winds: from the SSE (150 degrees) at 7 MPH (6 knots; 3.1 m/s)
Visibility: 5 miles (8 km)
Ceiling: at least 12,000 feet AGL
Clouds: scattered clouds at 1800 feet AGL
Weather: -SHRA VCTS  (light rain showers, thunderstorm in vicinity)
Text: BECMG 2805/2806 VRB06KT 4800 BR -SHRA BKN003 BKN010 QNH3001INS
Forecast period: 0500 to 1500 UTC 28 November 2020
Forecast type: BECOMING: Conditions expected to become as follows by 0600 UTC 28 November 2020
Winds: variable direction winds at 7 MPH (6 knots; 3.1 m/s)
Visibility: 2.98 miles (4.80 km)
Ceiling: 300 feet AGL
Clouds: broken clouds at 300 feet AGL
broken clouds at 1000 feet AGL
Weather: BR -SHRA  (mist, light rain showers)
Text: TEMPO 2810/2815 1600 BR VCSH SCT003 SCT011 BKN025
Forecast period: 1000 to 1500 UTC 28 November 2020
Forecast type: TEMPORARY: The following changes expected for less than half the time period
Visibility: 0.99 miles (1.59 km)
Ceiling: 2500 feet AGL
Clouds: scattered clouds at 300 feet AGL
scattered clouds at 1100 feet AGL
broken clouds at 2500 feet AGL
Weather: BR VCSH  (mist, showers in vicinity)
Text: BECMG 2815/2816 36006KT 8000 BR FEW011 SCT025 BKN040 QNH3009INS TX26/2720Z TN19/2812Z
Forecast period: 1500 to 1600 UTC 28 November 2020
Forecast type: BECOMING: Conditions expected to become as follows by 1600 UTC 28 November 2020
Winds: from the N (360 degrees) at 7 MPH (6 knots; 3.1 m/s)
Visibility: 5 miles (8 km)
Ceiling: 4000 feet AGL
Clouds: few clouds at 1100 feet AGL
scattered clouds at 2500 feet AGL
broken clouds at 4000 feet AGL
Weather: BR  (mist)